sensor_id;sensor_type;location;lat;lon;timestamp;pressure;altitude;pressure_sealevel;temperature;humidity
17593;BME280;8915;51.760;14.300;2023-05-09T00:01:15;101897.34;;;8.06;61.66
17593;BME280;8915;51.760;14.300;2023-05-09T00:03:41;101892.06;;;8.06;59.48
17593;BME280;8915;51.760;14.300;2023-05-09T00:06:09;101894.97;;;8.05;59.74
17593;BME280;8915;51.760;14.300;2023-05-09T00:08:37;101890.50;;;8.05;59.64
17593;BME280;8915;51.760;14.300;2023-05-09T00:11:05;101888.16;;;8.04;59.36
17593;BME280;8915;51.760;14.300;2023-05-09T00:13:31;101885.78;;;8.02;59.98
17593;BME280;8915;51.760;14.300;2023-05-09T00:15:58;101886.84;;;8.01;59.16
17593;BME280;8915;51.760;14.300;2023-05-09T00:18:25;101887.41;;;7.98;59.71
17593;BME280;8915;51.760;14.300;2023-05-09T00:20:52;101891.09;;;7.97;58.59
17593;BME280;8915;51.760;14.300;2023-05-09T00:23:20;101884.00;;;7.98;58.23
17593;BME280;8915;51.760;14.300;2023-05-09T00:25:46;101883.47;;;7.96;59.17
17593;BME280;8915;51.760;14.300;2023-05-09T00:28:13;101871.91;;;7.97;58.79
17593;BME280;8915;51.760;14.300;2023-05-09T00:30:39;101872.47;;;7.94;59.70
17593;BME280;8915;51.760;14.300;2023-05-09T00:33:05;101874.28;;;7.93;59.19
17593;BME280;8915;51.760;14.300;2023-05-09T00:35:33;101875.88;;;7.94;59.54
17593;BME280;8915;51.760;14.300;2023-05-09T00:38:00;101867.47;;;7.92;58.26
17593;BME280;8915;51.760;14.300;2023-05-09T00:40:29;101871.16;;;7.91;59.46
17593;BME280;8915;51.760;14.300;2023-05-09T00:42:57;101866.44;;;7.88;59.10
17593;BME280;8915;51.760;14.300;2023-05-09T00:45:24;101864.38;;;7.85;59.01
17593;BME280;8915;51.760;14.300;2023-05-09T00:47:50;101861.53;;;7.82;59.09
17593;BME280;8915;51.760;14.300;2023-05-09T00:50:17;101854.97;;;7.79;59.50
17593;BME280;8915;51.760;14.300;2023-05-09T00:52:43;101850.25;;;7.76;60.13
17593;BME280;8915;51.760;14.300;2023-05-09T00:55:12;101853.16;;;7.75;58.53
17593;BME280;8915;51.760;14.300;2023-05-09T00:57:41;101847.38;;;7.73;58.90
17593;BME280;8915;51.760;14.300;2023-05-09T01:00:09;101852.41;;;7.69;60.01
17593;BME280;8915;51.760;14.300;2023-05-09T01:02:37;101847.69;;;7.66;60.19
17593;BME280;8915;51.760;14.300;2023-05-09T01:05:04;101841.94;;;7.64;59.27
17593;BME280;8915;51.760;14.300;2023-05-09T01:07:35;101835.66;;;7.60;59.59
17593;BME280;8915;51.760;14.300;2023-05-09T01:10:10;101834.84;;;7.60;59.67
17593;BME280;8915;51.760;14.300;2023-05-09T01:12:46;101838.81;;;7.57;58.77
17593;BME280;8915;51.760;14.300;2023-05-09T01:15:18;101832.28;;;7.55;59.04
17593;BME280;8915;51.760;14.300;2023-05-09T01:17:52;101835.19;;;7.53;59.47
17593;BME280;8915;51.760;14.300;2023-05-09T01:20:26;101824.16;;;7.51;59.31
17593;BME280;8915;51.760;14.300;2023-05-09T01:23:06;101837.84;;;7.48;58.62
17593;BME280;8915;51.760;14.300;2023-05-09T01:25:47;101826.81;;;7.46;58.95
17593;BME280;8915;51.760;14.300;2023-05-09T01:28:28;101834.47;;;7.43;60.40
17593;BME280;8915;51.760;14.300;2023-05-09T01:31:01;101837.91;;;7.43;58.70
17593;BME280;8915;51.760;14.300;2023-05-09T01:33:30;101832.41;;;7.40;60.74
17593;BME280;8915;51.760;14.300;2023-05-09T01:36:01;101832.66;;;7.38;58.97
17593;BME280;8915;51.760;14.300;2023-05-09T01:38:30;101831.38;;;7.36;60.90
17593;BME280;8915;51.760;14.300;2023-05-09T01:40:58;101824.03;;;7.33;59.74
17593;BME280;8915;51.760;14.300;2023-05-09T01:43:27;101821.44;;;7.28;60.81
17593;BME280;8915;51.760;14.300;2023-05-09T01:45:56;101820.94;;;7.26;59.68
17593;BME280;8915;51.760;14.300;2023-05-09T01:48:25;101818.34;;;7.21;60.25
17593;BME280;8915;51.760;14.300;2023-05-09T01:50:54;101822.56;;;7.17;59.28
17593;BME280;8915;51.760;14.300;2023-05-09T01:53:23;101823.13;;;7.14;59.73
17593;BME280;8915;51.760;14.300;2023-05-09T01:55:51;101820.22;;;7.10;61.24
17593;BME280;8915;51.760;14.300;2023-05-09T01:58:20;101820.25;;;7.05;60.84
17593;BME280;8915;51.760;14.300;2023-05-09T02:00:50;101809.50;;;7.02;60.05
17593;BME280;8915;51.760;14.300;2023-05-09T02:03:18;101803.22;;;6.98;61.22
17593;BME280;8915;51.760;14.300;2023-05-09T02:05:47;101804.84;;;6.94;61.12
17593;BME280;8915;51.760;14.300;2023-05-09T02:08:17;101818.50;;;6.91;60.97
17593;BME280;8915;51.760;14.300;2023-05-09T02:10:46;101808.81;;;6.86;60.78
17593;BME280;8915;51.760;14.300;2023-05-09T02:13:14;101806.72;;;6.83;60.69
17593;BME280;8915;51.760;14.300;2023-05-09T02:15:41;101807.28;;;6.80;60.58
17593;BME280;8915;51.760;14.300;2023-05-09T02:18:08;101810.44;;;6.77;61.08
17593;BME280;8915;51.760;14.300;2023-05-09T02:20:35;101802.31;;;6.74;61.37
17593;BME280;8915;51.760;14.300;2023-05-09T02:23:03;101803.13;;;6.69;61.34
17593;BME280;8915;51.760;14.300;2023-05-09T02:25:31;101804.72;;;6.65;61.59
17593;BME280;8915;51.760;14.300;2023-05-09T02:27:58;101806.31;;;6.61;61.56
17593;BME280;8915;51.760;14.300;2023-05-09T02:30:29;101809.75;;;6.57;61.85
17593;BME280;8915;51.760;14.300;2023-05-09T02:33:01;101803.72;;;6.51;61.78
17593;BME280;8915;51.760;14.300;2023-05-09T02:35:31;101813.19;;;6.47;61.60
17593;BME280;8915;51.760;14.300;2023-05-09T02:37:58;101809.81;;;6.42;62.54
17593;BME280;8915;51.760;14.300;2023-05-09T02:40:29;101805.88;;;6.39;62.72
17593;BME280;8915;51.760;14.300;2023-05-09T02:42:56;101811.16;;;6.34;62.86
17593;BME280;8915;51.760;14.300;2023-05-09T02:45:22;101815.84;;;6.32;62.70
17593;BME280;8915;51.760;14.300;2023-05-09T02:47:49;101828.47;;;6.30;62.99
17593;BME280;8915;51.760;14.300;2023-05-09T02:50:16;101817.97;;;6.25;63.04
17593;BME280;8915;51.760;14.300;2023-05-09T02:52:43;101816.69;;;6.23;63.20
17593;BME280;8915;51.760;14.300;2023-05-09T02:55:10;101815.63;;;6.19;63.13
17593;BME280;8915;51.760;14.300;2023-05-09T02:57:40;101823.50;;;6.14;63.56
17593;BME280;8915;51.760;14.300;2023-05-09T03:00:08;101822.47;;;6.10;63.56
17593;BME280;8915;51.760;14.300;2023-05-09T03:02:34;101829.00;;;6.07;63.53
17593;BME280;8915;51.760;14.300;2023-05-09T03:05:02;101823.00;;;6.02;63.78
17593;BME280;8915;51.760;14.300;2023-05-09T03:07:29;101817.53;;;5.98;64.26
17593;BME280;8915;51.760;14.300;2023-05-09T03:09:56;101817.25;;;5.95;64.05
17593;BME280;8915;51.760;14.300;2023-05-09T03:12:23;101806.25;;;5.93;64.21
17593;BME280;8915;51.760;14.300;2023-05-09T03:14:53;101802.31;;;5.90;64.23
17593;BME280;8915;51.760;14.300;2023-05-09T03:17:21;101801.00;;;5.88;64.26
17593;BME280;8915;51.760;14.300;2023-05-09T03:19:48;101806.50;;;5.86;64.10
17593;BME280;8915;51.760;14.300;2023-05-09T03:22:14;101810.97;;;5.86;64.77
17593;BME280;8915;51.760;14.300;2023-05-09T03:24:52;101812.28;;;5.83;64.25
17593;BME280;8915;51.760;14.300;2023-05-09T03:27:18;101807.31;;;5.82;64.92
17593;BME280;8915;51.760;14.300;2023-05-09T03:29:46;101807.03;;;5.83;64.70
17593;BME280;8915;51.760;14.300;2023-05-09T03:32:16;101800.25;;;5.82;64.61
17593;BME280;8915;51.760;14.300;2023-05-09T03:34:42;101792.38;;;5.82;65.06
17593;BME280;8915;51.760;14.300;2023-05-09T03:37:09;101796.56;;;5.83;64.89
17593;BME280;8915;51.760;14.300;2023-05-09T03:39:38;101796.31;;;5.85;65.00
17593;BME280;8915;51.760;14.300;2023-05-09T03:42:05;101797.06;;;5.85;65.26
17593;BME280;8915;51.760;14.300;2023-05-09T03:44:31;101798.63;;;5.86;64.97
17593;BME280;8915;51.760;14.300;2023-05-09T03:46:59;101804.69;;;5.87;64.79
17593;BME280;8915;51.760;14.300;2023-05-09T03:49:31;101802.06;;;5.87;64.91
17593;BME280;8915;51.760;14.300;2023-05-09T03:51:58;101795.00;;;5.87;64.79
17593;BME280;8915;51.760;14.300;2023-05-09T03:54:25;101799.19;;;5.88;65.30
17593;BME280;8915;51.760;14.300;2023-05-09T03:56:52;101802.56;;;5.89;65.83
17593;BME280;8915;51.760;14.300;2023-05-09T03:59:18;101804.41;;;5.88;65.11
17593;BME280;8915;51.760;14.300;2023-05-09T04:01:45;101804.94;;;5.90;65.38
17593;BME280;8915;51.760;14.300;2023-05-09T04:04:12;101805.72;;;5.91;65.52
17593;BME280;8915;51.760;14.300;2023-05-09T04:06:40;101797.59;;;5.92;65.21
17593;BME280;8915;51.760;14.300;2023-05-09T04:09:09;101799.44;;;5.97;64.97
17593;BME280;8915;51.760;14.300;2023-05-09T04:11:35;101801.53;;;6.00;65.57
17593;BME280;8915;51.760;14.300;2023-05-09T04:14:07;101798.34;;;6.03;65.38
17593;BME280;8915;51.760;14.300;2023-05-09T04:16:35;101792.31;;;6.07;65.43
17593;BME280;8915;51.760;14.300;2023-05-09T04:19:01;101797.53;;;6.12;65.70
17593;BME280;8915;51.760;14.300;2023-05-09T04:21:28;101793.09;;;6.18;65.42
17593;BME280;8915;51.760;14.300;2023-05-09T04:23:59;101793.34;;;6.21;65.27
17593;BME280;8915;51.760;14.300;2023-05-09T04:26:35;101798.31;;;6.28;64.93
17593;BME280;8915;51.760;14.300;2023-05-09T04:29:05;101801.69;;;6.33;65.48
17593;BME280;8915;51.760;14.300;2023-05-09T04:31:32;101798.78;;;6.40;65.08
17593;BME280;8915;51.760;14.300;2023-05-09T04:33:59;101795.06;;;6.46;64.73
17593;BME280;8915;51.760;14.300;2023-05-09T04:36:30;101794.03;;;6.52;64.44
17593;BME280;8915;51.760;14.300;2023-05-09T04:38:59;101799.75;;;6.59;64.96
17593;BME280;8915;51.760;14.300;2023-05-09T04:41:29;101807.06;;;6.67;66.26
17593;BME280;8915;51.760;14.300;2023-05-09T04:43:57;101802.06;;;6.75;63.96
17593;BME280;8915;51.760;14.300;2023-05-09T04:46:27;101805.16;;;6.82;64.01
17593;BME280;8915;51.760;14.300;2023-05-09T04:48:54;101804.34;;;6.87;64.01
17593;BME280;8915;51.760;14.300;2023-05-09T04:51:21;101798.53;;;6.95;65.12
17593;BME280;8915;51.760;14.300;2023-05-09T04:53:49;101809.00;;;7.00;63.03
17593;BME280;8915;51.760;14.300;2023-05-09T04:56:20;101807.91;;;7.06;63.80
17593;BME280;8915;51.760;14.300;2023-05-09T04:58:47;101806.84;;;7.12;63.99
17593;BME280;8915;51.760;14.300;2023-05-09T05:01:14;101808.66;;;7.16;63.99
17593;BME280;8915;51.760;14.300;2023-05-09T05:03:41;101807.56;;;7.22;63.13
17593;BME280;8915;51.760;14.300;2023-05-09T05:06:08;101810.94;;;7.28;63.37
17593;BME280;8915;51.760;14.300;2023-05-09T05:08:36;101810.88;;;7.33;62.66
17593;BME280;8915;51.760;14.300;2023-05-09T05:11:03;101808.22;;;7.38;64.46
17593;BME280;8915;51.760;14.300;2023-05-09T05:13:34;101806.34;;;7.43;63.01
17593;BME280;8915;51.760;14.300;2023-05-09T05:16:01;101815.28;;;7.47;62.85
17593;BME280;8915;51.760;14.300;2023-05-09T05:18:30;101812.03;;;7.55;63.56
17593;BME280;8915;51.760;14.300;2023-05-09T05:20:58;101803.31;;;7.60;62.44
17593;BME280;8915;51.760;14.300;2023-05-09T05:23:25;101806.44;;;7.67;62.58
17593;BME280;8915;51.760;14.300;2023-05-09T05:25:53;101809.03;;;7.72;62.59
17593;BME280;8915;51.760;14.300;2023-05-09T05:28:20;101803.16;;;7.80;62.03
17593;BME280;8915;51.760;14.300;2023-05-09T05:30:49;101805.47;;;7.86;63.46
17593;BME280;8915;51.760;14.300;2023-05-09T05:33:18;101804.06;;;7.94;62.60
17593;BME280;8915;51.760;14.300;2023-05-09T05:35:51;101801.63;;;8.02;62.22
17593;BME280;8915;51.760;14.300;2023-05-09T05:38:18;101785.25;;;8.10;63.58
17593;BME280;8915;51.760;14.300;2023-05-09T05:40:49;101785.69;;;8.17;61.45
17593;BME280;8915;51.760;14.300;2023-05-09T05:43:16;101782.19;;;8.27;60.55
17593;BME280;8915;51.760;14.300;2023-05-09T05:45:43;101780.78;;;8.34;61.30
17593;BME280;8915;51.760;14.300;2023-05-09T05:48:18;101775.69;;;8.43;61.60
17593;BME280;8915;51.760;14.300;2023-05-09T05:50:46;101778.47;;;8.51;60.92
17593;BME280;8915;51.760;14.300;2023-05-09T05:53:16;101773.66;;;8.58;62.50
17593;BME280;8915;51.760;14.300;2023-05-09T05:55:43;101775.34;;;8.68;59.41
17593;BME280;8915;51.760;14.300;2023-05-09T05:58:13;101773.38;;;8.78;59.57
17593;BME280;8915;51.760;14.300;2023-05-09T06:00:43;101776.44;;;8.85;59.92
17593;BME280;8915;51.760;14.300;2023-05-09T06:03:13;101775.00;;;8.93;61.01
17593;BME280;8915;51.760;14.300;2023-05-09T06:05:47;101769.31;;;9.04;60.83
17593;BME280;8915;51.760;14.300;2023-05-09T06:08:14;101769.47;;;9.13;60.77
17593;BME280;8915;51.760;14.300;2023-05-09T06:10:40;101775.38;;;9.23;60.08
17593;BME280;8915;51.760;14.300;2023-05-09T06:13:10;101768.66;;;9.31;60.71
17593;BME280;8915;51.760;14.300;2023-05-09T06:15:39;101765.56;;;9.42;58.85
17593;BME280;8915;51.760;14.300;2023-05-09T06:18:06;101767.75;;;9.54;59.68
17593;BME280;8915;51.760;14.300;2023-05-09T06:20:33;101759.66;;;9.64;59.13
17593;BME280;8915;51.760;14.300;2023-05-09T06:23:01;101757.63;;;9.74;58.16
17593;BME280;8915;51.760;14.300;2023-05-09T06:25:28;101745.63;;;9.82;57.08
17593;BME280;8915;51.760;14.300;2023-05-09T06:27:55;101741.22;;;9.91;56.26
17593;BME280;8915;51.760;14.300;2023-05-09T06:30:21;101750.31;;;9.98;56.54
17593;BME280;8915;51.760;14.300;2023-05-09T06:32:48;101740.97;;;10.06;57.73
17593;BME280;8915;51.760;14.300;2023-05-09T06:35:14;101735.97;;;10.18;57.68
17593;BME280;8915;51.760;14.300;2023-05-09T06:37:41;101739.50;;;10.27;56.28
17593;BME280;8915;51.760;14.300;2023-05-09T06:40:12;101731.38;;;10.37;55.72
17593;BME280;8915;51.760;14.300;2023-05-09T06:42:39;101734.09;;;10.45;56.17
17593;BME280;8915;51.760;14.300;2023-05-09T06:45:07;101718.84;;;10.56;54.11
17593;BME280;8915;51.760;14.300;2023-05-09T06:47:34;101734.47;;;10.66;54.84
17593;BME280;8915;51.760;14.300;2023-05-09T06:50:01;101724.16;;;10.78;54.73
17593;BME280;8915;51.760;14.300;2023-05-09T06:52:27;101718.63;;;10.88;52.10
17593;BME280;8915;51.760;14.300;2023-05-09T06:54:54;101720.06;;;10.94;54.18
17593;BME280;8915;51.760;14.300;2023-05-09T06:57:22;101713.28;;;11.01;54.55
17593;BME280;8915;51.760;14.300;2023-05-09T06:59:48;101709.63;;;11.11;55.47
17593;BME280;8915;51.760;14.300;2023-05-09T07:02:15;101707.09;;;11.28;54.87
17593;BME280;8915;51.760;14.300;2023-05-09T07:04:41;101709.50;;;11.38;54.52
17593;BME280;8915;51.760;14.300;2023-05-09T07:07:08;101701.28;;;11.48;52.33
17593;BME280;8915;51.760;14.300;2023-05-09T07:09:34;101708.19;;;11.57;50.80
17593;BME280;8915;51.760;14.300;2023-05-09T07:12:01;101695.81;;;11.66;51.13
17593;BME280;8915;51.760;14.300;2023-05-09T07:14:29;101698.66;;;11.78;51.43
17593;BME280;8915;51.760;14.300;2023-05-09T07:16:55;101694.78;;;11.84;50.62
17593;BME280;8915;51.760;14.300;2023-05-09T07:19:22;101693.72;;;11.94;52.03
17593;BME280;8915;51.760;14.300;2023-05-09T07:21:49;101695.16;;;12.00;52.00
17593;BME280;8915;51.760;14.300;2023-05-09T07:24:15;101697.19;;;12.11;48.54
17593;BME280;8915;51.760;14.300;2023-05-09T07:26:42;101679.47;;;12.20;48.91
17593;BME280;8915;51.760;14.300;2023-05-09T07:29:08;101689.59;;;12.27;50.76
17593;BME280;8915;51.760;14.300;2023-05-09T07:31:36;101673.72;;;12.35;49.29
17593;BME280;8915;51.760;14.300;2023-05-09T07:34:02;101678.22;;;12.43;47.00
17593;BME280;8915;51.760;14.300;2023-05-09T07:36:29;101666.88;;;12.51;48.47
17593;BME280;8915;51.760;14.300;2023-05-09T07:38:55;101669.50;;;12.60;48.89
17593;BME280;8915;51.760;14.300;2023-05-09T07:41:22;101656.25;;;12.68;48.76
17593;BME280;8915;51.760;14.300;2023-05-09T07:43:48;101657.34;;;12.76;50.58
17593;BME280;8915;51.760;14.300;2023-05-09T07:46:15;101658.56;;;12.87;46.81
17593;BME280;8915;51.760;14.300;2023-05-09T07:48:43;101657.53;;;12.96;50.02
17593;BME280;8915;51.760;14.300;2023-05-09T07:51:09;101654.06;;;13.04;49.48
17593;BME280;8915;51.760;14.300;2023-05-09T07:53:36;101647.03;;;13.08;49.47
17593;BME280;8915;51.760;14.300;2023-05-09T07:56:03;101648.91;;;13.16;48.25
17593;BME280;8915;51.760;14.300;2023-05-09T07:58:31;101643.88;;;13.23;46.33
17593;BME280;8915;51.760;14.300;2023-05-09T08:00:57;101642.59;;;13.29;45.55
17593;BME280;8915;51.760;14.300;2023-05-09T08:03:24;101633.06;;;13.37;47.33
17593;BME280;8915;51.760;14.300;2023-05-09T08:05:53;101630.38;;;13.45;46.23
17593;BME280;8915;51.760;14.300;2023-05-09T08:08:20;101626.78;;;13.50;47.49
17593;BME280;8915;51.760;14.300;2023-05-09T08:10:47;101620.94;;;13.56;49.06
17593;BME280;8915;51.760;14.300;2023-05-09T08:13:14;101615.59;;;13.65;45.23
17593;BME280;8915;51.760;14.300;2023-05-09T08:15:40;101627.09;;;13.77;45.88
17593;BME280;8915;51.760;14.300;2023-05-09T08:18:07;101618.19;;;13.82;46.14
17593;BME280;8915;51.760;14.300;2023-05-09T08:20:34;101618.88;;;13.91;45.55
17593;BME280;8915;51.760;14.300;2023-05-09T08:23:03;101612.44;;;14.00;46.16
17593;BME280;8915;51.760;14.300;2023-05-09T08:25:30;101614.59;;;14.07;46.73
17593;BME280;8915;51.760;14.300;2023-05-09T08:27:56;101607.97;;;14.13;44.11
17593;BME280;8915;51.760;14.300;2023-05-09T08:30:23;101606.66;;;14.19;47.00
17593;BME280;8915;51.760;14.300;2023-05-09T08:32:49;101601.75;;;14.29;47.11
17593;BME280;8915;51.760;14.300;2023-05-09T08:35:16;101594.38;;;14.35;44.37
17593;BME280;8915;51.760;14.300;2023-05-09T08:37:42;101590.72;;;14.39;45.31
17593;BME280;8915;51.760;14.300;2023-05-09T08:40:11;101588.78;;;14.48;44.74
17593;BME280;8915;51.760;14.300;2023-05-09T08:42:37;101578.41;;;14.55;44.77
17593;BME280;8915;51.760;14.300;2023-05-09T08:45:08;101579.09;;;14.64;45.97
17593;BME280;8915;51.760;14.300;2023-05-09T08:47:36;101581.44;;;14.78;43.48
17593;BME280;8915;51.760;14.300;2023-05-09T08:50:04;101575.16;;;14.82;46.71
17593;BME280;8915;51.760;14.300;2023-05-09T08:52:31;101576.03;;;14.86;45.90
17593;BME280;8915;51.760;14.300;2023-05-09T08:54:58;101579.72;;;14.94;42.00
17593;BME280;8915;51.760;14.300;2023-05-09T08:57:26;101579.50;;;14.99;45.45
17593;BME280;8915;51.760;14.300;2023-05-09T08:59:54;101565.34;;;15.07;45.46
17593;BME280;8915;51.760;14.300;2023-05-09T09:02:20;101561.34;;;15.13;43.59
17593;BME280;8915;51.760;14.300;2023-05-09T09:04:47;101568.78;;;15.19;46.47
17593;BME280;8915;51.760;14.300;2023-05-09T09:07:14;101561.69;;;15.23;46.05
17593;BME280;8915;51.760;14.300;2023-05-09T09:09:43;101555.69;;;15.26;44.91
17593;BME280;8915;51.760;14.300;2023-05-09T09:12:10;101557.38;;;15.31;43.83
17593;BME280;8915;51.760;14.300;2023-05-09T09:14:41;101556.06;;;15.37;42.91
17593;BME280;8915;51.760;14.300;2023-05-09T09:17:08;101539.88;;;15.42;45.02
17593;BME280;8915;51.760;14.300;2023-05-09T09:19:38;101549.50;;;15.46;45.20
17593;BME280;8915;51.760;14.300;2023-05-09T09:22:07;101548.72;;;15.58;43.42
17593;BME280;8915;51.760;14.300;2023-05-09T09:24:33;101540.84;;;15.61;44.57
17593;BME280;8915;51.760;14.300;2023-05-09T09:27:04;101523.53;;;15.67;44.64
17593;BME280;8915;51.760;14.300;2023-05-09T09:29:32;101529.84;;;15.75;45.22
17593;BME280;8915;51.760;14.300;2023-05-09T09:32:02;101530.81;;;15.82;45.27
17593;BME280;8915;51.760;14.300;2023-05-09T09:34:29;101533.34;;;15.91;44.74
17593;BME280;8915;51.760;14.300;2023-05-09T09:36:55;101528.56;;;15.96;41.49
17593;BME280;8915;51.760;14.300;2023-05-09T09:39:22;101534.88;;;16.04;44.48
17593;BME280;8915;51.760;14.300;2023-05-09T09:41:48;101532.38;;;16.11;41.02
17593;BME280;8915;51.760;14.300;2023-05-09T09:44:16;101527.59;;;16.16;39.99
17593;BME280;8915;51.760;14.300;2023-05-09T09:46:43;101519.38;;;16.21;41.39
17593;BME280;8915;51.760;14.300;2023-05-09T09:49:12;101518.00;;;16.27;44.25
17593;BME280;8915;51.760;14.300;2023-05-09T09:51:40;101526.50;;;16.33;42.34
17593;BME280;8915;51.760;14.300;2023-05-09T09:54:07;101521.41;;;16.40;40.94
17593;BME280;8915;51.760;14.300;2023-05-09T09:56:37;101520.38;;;16.44;41.84
17593;BME280;8915;51.760;14.300;2023-05-09T09:59:08;101509.47;;;16.49;43.65
17593;BME280;8915;51.760;14.300;2023-05-09T10:01:52;101500.53;;;16.57;42.26
17593;BME280;8915;51.760;14.300;2023-05-09T10:04:20;101495.38;;;16.64;41.73
17593;BME280;8915;51.760;14.300;2023-05-09T10:06:51;101487.47;;;16.68;40.40
17593;BME280;8915;51.760;14.300;2023-05-09T10:09:19;101478.78;;;16.71;39.57
17593;BME280;8915;51.760;14.300;2023-05-09T10:11:48;101481.97;;;16.76;41.63
17593;BME280;8915;51.760;14.300;2023-05-09T10:14:15;101478.59;;;16.79;42.30
17593;BME280;8915;51.760;14.300;2023-05-09T10:16:45;101474.13;;;16.83;39.27
17593;BME280;8915;51.760;14.300;2023-05-09T10:19:15;101476.09;;;16.86;41.28
17593;BME280;8915;51.760;14.300;2023-05-09T10:21:47;101466.28;;;16.90;40.20
17593;BME280;8915;51.760;14.300;2023-05-09T10:24:16;101462.56;;;16.95;40.20
17593;BME280;8915;51.760;14.300;2023-05-09T10:26:44;101456.63;;;17.01;39.76
17593;BME280;8915;51.760;14.300;2023-05-09T10:29:15;101467.91;;;17.10;39.89
17593;BME280;8915;51.760;14.300;2023-05-09T10:31:50;101465.81;;;17.19;38.81
17593;BME280;8915;51.760;14.300;2023-05-09T10:34:20;101458.22;;;17.21;41.32
17593;BME280;8915;51.760;14.300;2023-05-09T10:36:49;101453.03;;;17.28;41.75
17593;BME280;8915;51.760;14.300;2023-05-09T10:39:15;101446.75;;;17.36;39.25
17593;BME280;8915;51.760;14.300;2023-05-09T10:41:43;101443.50;;;17.43;39.50
17593;BME280;8915;51.760;14.300;2023-05-09T10:44:10;101435.88;;;17.45;41.09
17593;BME280;8915;51.760;14.300;2023-05-09T10:46:37;101434.47;;;17.51;38.78
17593;BME280;8915;51.760;14.300;2023-05-09T10:49:04;101438.06;;;17.58;38.84
17593;BME280;8915;51.760;14.300;2023-05-09T10:51:30;101433.94;;;17.61;36.59
17593;BME280;8915;51.760;14.300;2023-05-09T10:53:58;101428.31;;;17.66;38.04
17593;BME280;8915;51.760;14.300;2023-05-09T10:56:27;101429.16;;;17.70;39.48
17593;BME280;8915;51.760;14.300;2023-05-09T10:58:54;101434.69;;;17.80;38.89
17593;BME280;8915;51.760;14.300;2023-05-09T11:01:29;101429.78;;;17.82;39.47
17593;BME280;8915;51.760;14.300;2023-05-09T11:03:57;101425.34;;;17.90;39.71
17593;BME280;8915;51.760;14.300;2023-05-09T11:06:42;101418.53;;;17.92;37.84
17593;BME280;8915;51.760;14.300;2023-05-09T11:09:30;101423.19;;;17.99;40.23
17593;BME280;8915;51.760;14.300;2023-05-09T11:12:00;101416.88;;;18.07;38.42
17593;BME280;8915;51.760;14.300;2023-05-09T11:14:32;101411.22;;;18.12;41.35
17593;BME280;8915;51.760;14.300;2023-05-09T11:17:00;101399.91;;;18.18;40.01
17593;BME280;8915;51.760;14.300;2023-05-09T11:19:35;101395.34;;;18.22;38.51
17593;BME280;8915;51.760;14.300;2023-05-09T11:22:11;101377.78;;;18.21;39.49
17593;BME280;8915;51.760;14.300;2023-05-09T11:24:39;101388.19;;;18.26;39.63
17593;BME280;8915;51.760;14.300;2023-05-09T11:27:13;101374.84;;;18.30;37.73
17593;BME280;8915;51.760;14.300;2023-05-09T11:29:45;101375.38;;;18.35;35.89
17593;BME280;8915;51.760;14.300;2023-05-09T11:32:12;101365.88;;;18.38;35.36
17593;BME280;8915;51.760;14.300;2023-05-09T11:34:41;101367.44;;;18.42;39.19
17593;BME280;8915;51.760;14.300;2023-05-09T11:37:11;101349.88;;;18.41;35.60
17593;BME280;8915;51.760;14.300;2023-05-09T11:39:58;101354.13;;;18.46;36.67
17593;BME280;8915;51.760;14.300;2023-05-09T11:42:27;101360.25;;;18.46;36.08
17593;BME280;8915;51.760;14.300;2023-05-09T11:44:55;101344.63;;;18.48;38.10
17593;BME280;8915;51.760;14.300;2023-05-09T11:47:21;101339.38;;;18.55;37.99
17593;BME280;8915;51.760;14.300;2023-05-09T11:49:48;101352.84;;;18.62;35.55
17593;BME280;8915;51.760;14.300;2023-05-09T11:52:15;101335.66;;;18.63;37.11
17593;BME280;8915;51.760;14.300;2023-05-09T11:54:42;101338.78;;;18.65;37.58
17593;BME280;8915;51.760;14.300;2023-05-09T11:57:10;101331.19;;;18.71;37.29
17593;BME280;8915;51.760;14.300;2023-05-09T11:59:43;101328.16;;;18.72;37.58
17593;BME280;8915;51.760;14.300;2023-05-09T12:02:10;101330.13;;;18.75;38.68
17593;BME280;8915;51.760;14.300;2023-05-09T12:04:36;101314.13;;;18.79;37.53
17593;BME280;8915;51.760;14.300;2023-05-09T12:07:03;101318.38;;;18.83;36.93
17593;BME280;8915;51.760;14.300;2023-05-09T12:09:30;101310.75;;;18.85;35.29
17593;BME280;8915;51.760;14.300;2023-05-09T12:11:58;101307.66;;;18.83;37.36
17593;BME280;8915;51.760;14.300;2023-05-09T12:14:27;101307.31;;;18.85;36.46
17593;BME280;8915;51.760;14.300;2023-05-09T12:16:54;101309.66;;;18.90;37.16
17593;BME280;8915;51.760;14.300;2023-05-09T12:19:22;101301.31;;;18.95;38.96
17593;BME280;8915;51.760;14.300;2023-05-09T12:21:53;101294.47;;;18.97;36.90
17593;BME280;8915;51.760;14.300;2023-05-09T12:24:20;101296.78;;;18.99;38.77
17593;BME280;8915;51.760;14.300;2023-05-09T12:26:47;101288.44;;;19.04;37.70
17593;BME280;8915;51.760;14.300;2023-05-09T12:29:15;101282.34;;;19.07;39.34
17593;BME280;8915;51.760;14.300;2023-05-09T12:31:45;101281.97;;;19.08;36.75
17593;BME280;8915;51.760;14.300;2023-05-09T12:34:12;101280.84;;;19.09;38.24
17593;BME280;8915;51.760;14.300;2023-05-09T12:36:39;101268.97;;;19.10;38.68
17593;BME280;8915;51.760;14.300;2023-05-09T12:39:09;101276.28;;;19.13;36.97
17593;BME280;8915;51.760;14.300;2023-05-09T12:41:42;101267.13;;;19.14;37.28
17593;BME280;8915;51.760;14.300;2023-05-09T12:44:08;101261.06;;;19.17;35.28
17593;BME280;8915;51.760;14.300;2023-05-09T12:46:35;101246.88;;;19.17;35.83
17593;BME280;8915;51.760;14.300;2023-05-09T12:49:03;101256.53;;;19.21;38.19
17593;BME280;8915;51.760;14.300;2023-05-09T12:51:30;101261.94;;;19.25;36.01
17593;BME280;8915;51.760;14.300;2023-05-09T12:54:01;101247.03;;;19.27;37.41
17593;BME280;8915;51.760;14.300;2023-05-09T12:56:32;101239.41;;;19.29;34.88
17593;BME280;8915;51.760;14.300;2023-05-09T12:58:59;101240.94;;;19.30;37.96
17593;BME280;8915;51.760;14.300;2023-05-09T13:01:26;101241.28;;;19.29;36.71